sensor_id;sensor_type;location;lat;lon;timestamp;pressure;altitude;pressure_sealevel;temperature;humidity
37368;BME280;23240;43.210;27.910;2023-06-22T00:01:46;101270.78;;;19.67;100.00
37368;BME280;23240;43.210;27.910;2023-06-22T00:04:11;101271.97;;;19.65;100.00
37368;BME280;23240;43.210;27.910;2023-06-22T00:06:36;101269.09;;;19.66;100.00
37368;BME280;23240;43.210;27.910;2023-06-22T00:09:02;101273.66;;;19.66;100.00
37368;BME280;23240;43.210;27.910;2023-06-22T00:11:28;101276.38;;;19.66;100.00
37368;BME280;23240;43.210;27.910;2023-06-22T00:13:53;101274.00;;;19.63;100.00
37368;BME280;23240;43.210;27.910;2023-06-22T00:16:19;101275.72;;;19.64;100.00
37368;BME280;23240;43.210;27.910;2023-06-22T00:18:44;101278.59;;;19.62;100.00
37368;BME280;23240;43.210;27.910;2023-06-22T00:21:12;101276.34;;;19.58;100.00
37368;BME280;23240;43.210;27.910;2023-06-22T00:23:37;101269.22;;;19.57;100.00
37368;BME280;23240;43.210;27.910;2023-06-22T00:26:03;101281.50;;;19.61;100.00
37368;BME280;23240;43.210;27.910;2023-06-22T00:28:28;101274.66;;;19.57;100.00
37368;BME280;23240;43.210;27.910;2023-06-22T00:30:54;101271.28;;;19.55;100.00
37368;BME280;23240;43.210;27.910;2023-06-22T00:33:19;101282.47;;;19.51;100.00
37368;BME280;23240;43.210;27.910;2023-06-22T00:35:44;101278.25;;;19.49;100.00
37368;BME280;23240;43.210;27.910;2023-06-22T00:38:10;101276.38;;;19.49;100.00
37368;BME280;23240;43.210;27.910;2023-06-22T00:40:36;101281.63;;;19.51;100.00
37368;BME280;23240;43.210;27.910;2023-06-22T00:43:01;101279.94;;;19.50;100.00
37368;BME280;23240;43.210;27.910;2023-06-22T00:45:27;101289.13;;;19.49;100.00
37368;BME280;23240;43.210;27.910;2023-06-22T00:47:52;101292.00;;;19.47;100.00
37368;BME280;23240;43.210;27.910;2023-06-22T00:50:20;101297.41;;;19.47;100.00
37368;BME280;23240;43.210;27.910;2023-06-22T00:52:48;101284.88;;;19.46;100.00
37368;BME280;23240;43.210;27.910;2023-06-22T00:55:13;101291.66;;;19.42;100.00
37368;BME280;23240;43.210;27.910;2023-06-22T00:57:39;101294.88;;;19.46;100.00
37368;BME280;23240;43.210;27.910;2023-06-22T01:00:05;101294.88;;;19.46;100.00
37368;BME280;23240;43.210;27.910;2023-06-22T01:02:35;101295.06;;;19.44;100.00
37368;BME280;23240;43.210;27.910;2023-06-22T01:05:01;101297.59;;;19.46;100.00
37368;BME280;23240;43.210;27.910;2023-06-22T01:07:38;101295.38;;;19.41;100.00
37368;BME280;23240;43.210;27.910;2023-06-22T01:10:09;101306.94;;;19.43;100.00
37368;BME280;23240;43.210;27.910;2023-06-22T01:12:51;101298.09;;;19.41;100.00
37368;BME280;23240;43.210;27.910;2023-06-22T01:17:42;101285.88;;;19.45;100.00
37368;BME280;23240;43.210;27.910;2023-06-22T01:20:09;101284.88;;;19.46;100.00
37368;BME280;23240;43.210;27.910;2023-06-22T01:22:49;101270.25;;;19.47;100.00
37368;BME280;23240;43.210;27.910;2023-06-22T01:25:20;101274.66;;;19.48;100.00
37368;BME280;23240;43.210;27.910;2023-06-22T01:30:11;101258.34;;;19.48;100.00
37368;BME280;23240;43.210;27.910;2023-06-22T01:32:38;101263.47;;;19.51;100.00
37368;BME280;23240;43.210;27.910;2023-06-22T01:35:06;101260.41;;;19.55;100.00
37368;BME280;23240;43.210;27.910;2023-06-22T01:37:32;101259.06;;;19.59;100.00
37368;BME280;23240;43.210;27.910;2023-06-22T01:39:59;101260.41;;;19.63;100.00
37368;BME280;23240;43.210;27.910;2023-06-22T01:42:25;101263.84;;;19.65;100.00
37368;BME280;23240;43.210;27.910;2023-06-22T01:44:54;101256.53;;;19.65;100.00
37368;BME280;23240;43.210;27.910;2023-06-22T01:47:20;101254.47;;;19.67;100.00
37368;BME280;23240;43.210;27.910;2023-06-22T01:49:47;101247.53;;;19.73;100.00
37368;BME280;23240;43.210;27.910;2023-06-22T01:52:12;101239.00;;;19.84;100.00
37368;BME280;23240;43.210;27.910;2023-06-22T01:54:39;101236.28;;;19.84;100.00
37368;BME280;23240;43.210;27.910;2023-06-22T01:57:04;101235.56;;;19.90;100.00
37368;BME280;23240;43.210;27.910;2023-06-22T01:59:34;101229.09;;;19.99;100.00
37368;BME280;23240;43.210;27.910;2023-06-22T02:02:04;101236.19;;;20.09;100.00
37368;BME280;23240;43.210;27.910;2023-06-22T02:04:34;101235.53;;;20.07;100.00
37368;BME280;23240;43.210;27.910;2023-06-22T02:07:01;101235.53;;;20.07;100.00
37368;BME280;23240;43.210;27.910;2023-06-22T02:09:30;101245.00;;;20.11;100.00
37368;BME280;23240;43.210;27.910;2023-06-22T02:11:56;101255.75;;;20.12;100.00
37368;BME280;23240;43.210;27.910;2023-06-22T02:14:24;101256.59;;;20.13;100.00
37368;BME280;23240;43.210;27.910;2023-06-22T02:16:50;101259.44;;;20.19;100.00
37368;BME280;23240;43.210;27.910;2023-06-22T02:19:16;101260.66;;;20.17;100.00
37368;BME280;23240;43.210;27.910;2023-06-22T02:21:43;101261.19;;;20.12;100.00
37368;BME280;23240;43.210;27.910;2023-06-22T02:24:08;101259.66;;;20.10;100.00
37368;BME280;23240;43.210;27.910;2023-06-22T02:26:34;101269.69;;;20.09;100.00
37368;BME280;23240;43.210;27.910;2023-06-22T02:28:59;101262.19;;;20.11;100.00
37368;BME280;23240;43.210;27.910;2023-06-22T02:31:25;101265.44;;;20.07;100.00
37368;BME280;23240;43.210;27.910;2023-06-22T02:33:55;101268.19;;;20.07;100.00
37368;BME280;23240;43.210;27.910;2023-06-22T02:36:22;101265.78;;;20.03;100.00
37368;BME280;23240;43.210;27.910;2023-06-22T02:38:49;101265.09;;;20.01;100.00
37368;BME280;23240;43.210;27.910;2023-06-22T02:41:14;101272.91;;;20.05;100.00
37368;BME280;23240;43.210;27.910;2023-06-22T02:43:43;101280.41;;;20.02;100.00
37368;BME280;23240;43.210;27.910;2023-06-22T02:46:09;101279.72;;;20.09;100.00
37368;BME280;23240;43.210;27.910;2023-06-22T02:48:34;101282.09;;;20.12;100.00
37368;BME280;23240;43.210;27.910;2023-06-22T02:51:00;101287.84;;;20.17;100.00
37368;BME280;23240;43.210;27.910;2023-06-22T02:53:25;101287.16;;;20.23;100.00
37368;BME280;23240;43.210;27.910;2023-06-22T02:55:50;101291.56;;;20.24;100.00
37368;BME280;23240;43.210;27.910;2023-06-22T02:58:16;101285.78;;;20.27;100.00
37368;BME280;23240;43.210;27.910;2023-06-22T03:00:41;101298.34;;;20.28;100.00
37368;BME280;23240;43.210;27.910;2023-06-22T03:03:06;101293.94;;;20.27;100.00
37368;BME280;23240;43.210;27.910;2023-06-22T03:05:32;101304.81;;;20.27;100.00
37368;BME280;23240;43.210;27.910;2023-06-22T03:07:57;101301.91;;;20.28;100.00
37368;BME280;23240;43.210;27.910;2023-06-22T03:10:23;101301.84;;;20.45;100.00
37368;BME280;23240;43.210;27.910;2023-06-22T03:12:48;101303.22;;;20.49;100.00
37368;BME280;23240;43.210;27.910;2023-06-22T03:15:14;101304.25;;;20.48;100.00
37368;BME280;23240;43.210;27.910;2023-06-22T03:17:39;101304.06;;;20.49;100.00
37368;BME280;23240;43.210;27.910;2023-06-22T03:20:05;101298.63;;;20.49;100.00
37368;BME280;23240;43.210;27.910;2023-06-22T03:22:35;101297.09;;;20.55;100.00
37368;BME280;23240;43.210;27.910;2023-06-22T03:25:01;101299.25;;;20.60;100.00
37368;BME280;23240;43.210;27.910;2023-06-22T03:27:26;101296.19;;;20.63;100.00
37368;BME280;23240;43.210;27.910;2023-06-22T03:29:51;101299.59;;;20.65;100.00
37368;BME280;23240;43.210;27.910;2023-06-22T03:32:17;101288.97;;;20.78;100.00
37368;BME280;23240;43.210;27.910;2023-06-22T03:34:42;101305.16;;;20.79;100.00
37368;BME280;23240;43.210;27.910;2023-06-22T03:37:12;101286.41;;;20.85;100.00
37368;BME280;23240;43.210;27.910;2023-06-22T03:39:38;101285.38;;;20.86;100.00
37368;BME280;23240;43.210;27.910;2023-06-22T03:42:03;101286.50;;;20.91;100.00
37368;BME280;23240;43.210;27.910;2023-06-22T03:44:29;101282.66;;;21.09;100.00
37368;BME280;23240;43.210;27.910;2023-06-22T03:46:54;101289.91;;;21.16;100.00
37368;BME280;23240;43.210;27.910;2023-06-22T03:49:19;101284.59;;;21.23;100.00
37368;BME280;23240;43.210;27.910;2023-06-22T03:51:45;101282.19;;;21.28;100.00
37368;BME280;23240;43.210;27.910;2023-06-22T03:54:10;101289.69;;;21.26;100.00
37368;BME280;23240;43.210;27.910;2023-06-22T03:56:35;101292.06;;;21.29;100.00
37368;BME280;23240;43.210;27.910;2023-06-22T03:59:01;101285.53;;;21.38;100.00
37368;BME280;23240;43.210;27.910;2023-06-22T04:01:26;101291.28;;;21.43;100.00
37368;BME280;23240;43.210;27.910;2023-06-22T04:03:51;101289.34;;;21.52;100.00
37368;BME280;23240;43.210;27.910;2023-06-22T04:06:17;101295.38;;;21.62;100.00
37368;BME280;23240;43.210;27.910;2023-06-22T04:08:44;101287.81;;;21.87;100.00
37368;BME280;23240;43.210;27.910;2023-06-22T04:11:13;101287.09;;;22.23;100.00
37368;BME280;23240;43.210;27.910;2023-06-22T04:13:38;101292.72;;;22.66;100.00
37368;BME280;23240;43.210;27.910;2023-06-22T04:16:03;101288.34;;;22.86;100.00
37368;BME280;23240;43.210;27.910;2023-06-22T04:18:29;101293.59;;;23.02;100.00
37368;BME280;23240;43.210;27.910;2023-06-22T04:20:54;101293.88;;;23.07;100.00
37368;BME280;23240;43.210;27.910;2023-06-22T04:23:20;101290.16;;;22.94;100.00
37368;BME280;23240;43.210;27.910;2023-06-22T04:25:45;101292.94;;;22.86;100.00
37368;BME280;23240;43.210;27.910;2023-06-22T04:28:10;101292.47;;;22.82;100.00
37368;BME280;23240;43.210;27.910;2023-06-22T04:30:37;101307.59;;;22.93;100.00
37368;BME280;23240;43.210;27.910;2023-06-22T04:33:11;101295.75;;;23.07;100.00
37368;BME280;23240;43.210;27.910;2023-06-22T04:35:36;101298.53;;;23.56;100.00
37368;BME280;23240;43.210;27.910;2023-06-22T04:38:01;101304.34;;;24.24;100.00
37368;BME280;23240;43.210;27.910;2023-06-22T04:40:28;101293.91;;;24.41;100.00
37368;BME280;23240;43.210;27.910;2023-06-22T04:42:53;101296.84;;;24.81;100.00
37368;BME280;23240;43.210;27.910;2023-06-22T04:45:19;101305.22;;;25.41;100.00
37368;BME280;23240;43.210;27.910;2023-06-22T04:47:45;101303.06;;;26.29;100.00
37368;BME280;23240;43.210;27.910;2023-06-22T04:50:13;101297.25;;;25.79;100.00
37368;BME280;23240;43.210;27.910;2023-06-22T04:52:39;101305.03;;;25.95;100.00
37368;BME280;23240;43.210;27.910;2023-06-22T04:55:04;101312.41;;;26.86;100.00
37368;BME280;23240;43.210;27.910;2023-06-22T04:57:30;101312.72;;;27.41;100.00
37368;BME280;23240;43.210;27.910;2023-06-22T04:59:59;101301.59;;;27.61;100.00
37368;BME280;23240;43.210;27.910;2023-06-22T05:02:36;101304.22;;;27.99;100.00
37368;BME280;23240;43.210;27.910;2023-06-22T05:05:02;101306.81;;;28.19;96.32
37368;BME280;23240;43.210;27.910;2023-06-22T05:07:32;101312.72;;;28.59;94.11
37368;BME280;23240;43.210;27.910;2023-06-22T05:09:57;101311.72;;;28.72;88.09
37368;BME280;23240;43.210;27.910;2023-06-22T05:12:23;101313.97;;;29.12;83.24
37368;BME280;23240;43.210;27.910;2023-06-22T05:14:48;101315.91;;;29.23;83.75
37368;BME280;23240;43.210;27.910;2023-06-22T05:17:13;101315.69;;;29.66;78.51
37368;BME280;23240;43.210;27.910;2023-06-22T05:19:39;101319.34;;;29.49;78.78
37368;BME280;23240;43.210;27.910;2023-06-22T05:22:04;101320.75;;;28.42;88.13
37368;BME280;23240;43.210;27.910;2023-06-22T05:24:31;101312.84;;;28.28;92.13
37368;BME280;23240;43.210;27.910;2023-06-22T05:26:56;101319.88;;;28.05;90.56
37368;BME280;23240;43.210;27.910;2023-06-22T05:29:22;101327.22;;;27.30;98.53
37368;BME280;23240;43.210;27.910;2023-06-22T05:31:48;101323.97;;;27.01;100.00
37368;BME280;23240;43.210;27.910;2023-06-22T05:34:13;101318.41;;;27.46;99.58
37368;BME280;23240;43.210;27.910;2023-06-22T05:36:39;101319.75;;;27.93;93.46
37368;BME280;23240;43.210;27.910;2023-06-22T05:39:14;101319.81;;;28.85;86.82
37368;BME280;23240;43.210;27.910;2023-06-22T05:41:39;101326.66;;;29.85;77.66
37368;BME280;23240;43.210;27.910;2023-06-22T05:44:05;101326.81;;;30.13;72.75
37368;BME280;23240;43.210;27.910;2023-06-22T05:46:30;101316.63;;;30.54;68.19
37368;BME280;23240;43.210;27.910;2023-06-22T05:48:56;101308.22;;;30.73;65.58
37368;BME280;23240;43.210;27.910;2023-06-22T05:51:21;101320.34;;;30.60;66.23
37368;BME280;23240;43.210;27.910;2023-06-22T05:53:46;101314.69;;;30.66;66.67
37368;BME280;23240;43.210;27.910;2023-06-22T05:56:14;101307.69;;;30.87;64.47
37368;BME280;23240;43.210;27.910;2023-06-22T05:58:42;101311.22;;;30.71;64.62
37368;BME280;23240;43.210;27.910;2023-06-22T06:01:07;101304.78;;;30.30;65.00
37368;BME280;23240;43.210;27.910;2023-06-22T06:03:32;101302.63;;;29.97;68.70
37368;BME280;23240;43.210;27.910;2023-06-22T06:05:57;101304.16;;;29.93;70.59
37368;BME280;23240;43.210;27.910;2023-06-22T06:08:23;101305.41;;;30.20;69.38
37368;BME280;23240;43.210;27.910;2023-06-22T06:10:48;101295.28;;;30.38;67.34
37368;BME280;23240;43.210;27.910;2023-06-22T06:13:13;101308.66;;;30.69;68.53
37368;BME280;23240;43.210;27.910;2023-06-22T06:15:39;101301.41;;;30.52;67.17
37368;BME280;23240;43.210;27.910;2023-06-22T06:18:04;101303.69;;;30.43;66.71
37368;BME280;23240;43.210;27.910;2023-06-22T06:20:30;101310.13;;;30.60;65.95
37368;BME280;23240;43.210;27.910;2023-06-22T06:22:56;101317.59;;;30.71;65.68
37368;BME280;23240;43.210;27.910;2023-06-22T06:25:22;101312.22;;;31.22;63.75
37368;BME280;23240;43.210;27.910;2023-06-22T06:27:48;101307.03;;;31.26;62.98
37368;BME280;23240;43.210;27.910;2023-06-22T06:30:14;101310.88;;;31.53;60.75
37368;BME280;23240;43.210;27.910;2023-06-22T06:32:40;101308.72;;;31.27;62.10
37368;BME280;23240;43.210;27.910;2023-06-22T06:35:06;101296.59;;;31.78;60.24
37368;BME280;23240;43.210;27.910;2023-06-22T06:37:31;101300.81;;;31.97;57.92
37368;BME280;23240;43.210;27.910;2023-06-22T06:39:57;101297.44;;;32.34;56.21
37368;BME280;23240;43.210;27.910;2023-06-22T06:42:22;101306.91;;;32.55;54.43
37368;BME280;23240;43.210;27.910;2023-06-22T06:44:49;101309.34;;;33.22;53.22
37368;BME280;23240;43.210;27.910;2023-06-22T06:47:15;101309.22;;;33.39;52.17
37368;BME280;23240;43.210;27.910;2023-06-22T06:49:40;101304.59;;;33.18;51.58
37368;BME280;23240;43.210;27.910;2023-06-22T06:52:05;101303.06;;;33.05;52.73
37368;BME280;23240;43.210;27.910;2023-06-22T06:54:31;101307.38;;;33.18;53.11
37368;BME280;23240;43.210;27.910;2023-06-22T06:56:56;101305.00;;;32.83;52.75
37368;BME280;23240;43.210;27.910;2023-06-22T06:59:22;101303.47;;;32.09;54.57
37368;BME280;23240;43.210;27.910;2023-06-22T07:01:47;101309.94;;;31.64;55.55
37368;BME280;23240;43.210;27.910;2023-06-22T07:04:13;101319.19;;;31.25;57.02
37368;BME280;23240;43.210;27.910;2023-06-22T07:06:39;101318.84;;;31.21;57.64
37368;BME280;23240;43.210;27.910;2023-06-22T07:09:04;101321.38;;;31.85;56.17
37368;BME280;23240;43.210;27.910;2023-06-22T07:11:29;101325.63;;;32.26;54.36
37368;BME280;23240;43.210;27.910;2023-06-22T07:13:55;101330.38;;;32.31;53.16
37368;BME280;23240;43.210;27.910;2023-06-22T07:16:20;101329.66;;;32.57;52.66
37368;BME280;23240;43.210;27.910;2023-06-22T07:18:45;101325.69;;;32.14;53.99
37368;BME280;23240;43.210;27.910;2023-06-22T07:21:10;101328.28;;;32.38;52.94
37368;BME280;23240;43.210;27.910;2023-06-22T07:23:36;101330.03;;;32.88;51.23
37368;BME280;23240;43.210;27.910;2023-06-22T07:26:01;101326.97;;;33.65;48.25
37368;BME280;23240;43.210;27.910;2023-06-22T07:28:27;101327.44;;;34.26;47.30
37368;BME280;23240;43.210;27.910;2023-06-22T07:30:52;101324.34;;;34.70;45.30
37368;BME280;23240;43.210;27.910;2023-06-22T07:33:17;101325.34;;;35.12;44.03
37368;BME280;23240;43.210;27.910;2023-06-22T07:35:43;101320.56;;;34.97;43.85
37368;BME280;23240;43.210;27.910;2023-06-22T07:38:09;101325.47;;;34.69;44.47
37368;BME280;23240;43.210;27.910;2023-06-22T07:40:36;101332.00;;;35.06;42.57
37368;BME280;23240;43.210;27.910;2023-06-22T07:43:01;101327.94;;;35.69;41.47
37368;BME280;23240;43.210;27.910;2023-06-22T07:45:27;101329.28;;;35.87;40.47
37368;BME280;23240;43.210;27.910;2023-06-22T07:47:52;101321.78;;;36.03;40.32
37368;BME280;23240;43.210;27.910;2023-06-22T07:50:17;101320.34;;;36.21;40.03
37368;BME280;23240;43.210;27.910;2023-06-22T07:52:43;101329.75;;;36.40;39.14
37368;BME280;23240;43.210;27.910;2023-06-22T07:55:08;101330.63;;;36.51;39.96
37368;BME280;23240;43.210;27.910;2023-06-22T07:57:33;101330.78;;;36.70;40.21
37368;BME280;23240;43.210;27.910;2023-06-22T07:59:59;101324.56;;;36.88;39.13
37368;BME280;23240;43.210;27.910;2023-06-22T08:02:25;101324.88;;;36.92;39.28
37368;BME280;23240;43.210;27.910;2023-06-22T08:04:50;101338.94;;;36.61;40.19
37368;BME280;23240;43.210;27.910;2023-06-22T08:07:15;101334.47;;;36.65;40.86
37368;BME280;23240;43.210;27.910;2023-06-22T08:09:45;101328.94;;;36.50;40.00
37368;BME280;23240;43.210;27.910;2023-06-22T08:12:11;101326.72;;;36.42;41.20
37368;BME280;23240;43.210;27.910;2023-06-22T08:14:38;101322.28;;;36.25;41.15
37368;BME280;23240;43.210;27.910;2023-06-22T08:17:03;101330.44;;;35.66;42.59
37368;BME280;23240;43.210;27.910;2023-06-22T08:19:29;101332.94;;;35.57;42.35
37368;BME280;23240;43.210;27.910;2023-06-22T08:21:54;101330.97;;;35.58;43.62
37368;BME280;23240;43.210;27.910;2023-06-22T08:24:19;101327.34;;;35.72;43.75
37368;BME280;23240;43.210;27.910;2023-06-22T08:26:45;101328.47;;;36.02;41.90
37368;BME280;23240;43.210;27.910;2023-06-22T08:29:10;101321.50;;;36.04;43.20
37368;BME280;23240;43.210;27.910;2023-06-22T08:31:36;101325.66;;;36.17;42.41
37368;BME280;23240;43.210;27.910;2023-06-22T08:34:01;101327.84;;;36.25;41.41
37368;BME280;23240;43.210;27.910;2023-06-22T08:36:26;101329.41;;;34.89;43.71
37368;BME280;23240;43.210;27.910;2023-06-22T08:38:55;101322.97;;;34.68;44.65
37368;BME280;23240;43.210;27.910;2023-06-22T08:41:22;101331.56;;;34.71;45.01
37368;BME280;23240;43.210;27.910;2023-06-22T08:43:48;101328.53;;;33.88;45.26
37368;BME280;23240;43.210;27.910;2023-06-22T08:46:13;101321.00;;;33.46;48.25
37368;BME280;23240;43.210;27.910;2023-06-22T08:48:38;101331.25;;;34.10;46.72
37368;BME280;23240;43.210;27.910;2023-06-22T08:51:04;101339.13;;;34.23;47.03
37368;BME280;23240;43.210;27.910;2023-06-22T08:53:29;101335.78;;;34.26;46.30
37368;BME280;23240;43.210;27.910;2023-06-22T08:55:54;101328.72;;;34.56;46.64
37368;BME280;23240;43.210;27.910;2023-06-22T08:58:20;101323.31;;;34.87;44.54
37368;BME280;23240;43.210;27.910;2023-06-22T09:00:46;101333.66;;;34.96;44.17
37368;BME280;23240;43.210;27.910;2023-06-22T09:03:11;101330.78;;;34.86;44.25
37368;BME280;23240;43.210;27.910;2023-06-22T09:05:37;101329.34;;;34.63;44.79
37368;BME280;23240;43.210;27.910;2023-06-22T09:08:02;101325.06;;;34.03;46.19
37368;BME280;23240;43.210;27.910;2023-06-22T09:10:27;101318.72;;;33.70;47.70
37368;BME280;23240;43.210;27.910;2023-06-22T09:12:53;101317.41;;;32.97;49.00
37368;BME280;23240;43.210;27.910;2023-06-22T09:15:18;101323.47;;;32.50;51.08
37368;BME280;23240;43.210;27.910;2023-06-22T09:17:43;101330.06;;;32.10;52.61
37368;BME280;23240;43.210;27.910;2023-06-22T09:20:11;101332.00;;;32.10;53.97
37368;BME280;23240;43.210;27.910;2023-06-22T09:22:36;101325.53;;;31.70;55.97
37368;BME280;23240;43.210;27.910;2023-06-22T09:25:02;101339.13;;;31.38;57.83
37368;BME280;23240;43.210;27.910;2023-06-22T09:27:28;101338.91;;;31.28;60.66
37368;BME280;23240;43.210;27.910;2023-06-22T09:29:54;101345.50;;;31.39;63.16
37368;BME280;23240;43.210;27.910;2023-06-22T09:32:19;101340.06;;;30.75;68.71
37368;BME280;23240;43.210;27.910;2023-06-22T09:34:45;101333.88;;;30.33;75.51
37368;BME280;23240;43.210;27.910;2023-06-22T09:37:10;101335.69;;;30.27;81.46
37368;BME280;23240;43.210;27.910;2023-06-22T09:39:35;101340.94;;;30.40;83.46
37368;BME280;23240;43.210;27.910;2023-06-22T09:42:01;101336.75;;;30.14;85.13
37368;BME280;23240;43.210;27.910;2023-06-22T09:44:27;101341.75;;;29.82;91.88
37368;BME280;23240;43.210;27.910;2023-06-22T09:46:52;101343.09;;;29.80;96.22
37368;BME280;23240;43.210;27.910;2023-06-22T09:49:18;101341.03;;;29.87;95.28
37368;BME280;23240;43.210;27.910;2023-06-22T09:51:43;101353.94;;;30.16;97.58
37368;BME280;23240;43.210;27.910;2023-06-22T09:54:08;101345.03;;;30.38;93.44
37368;BME280;23240;43.210;27.910;2023-06-22T09:56:34;101344.03;;;29.97;94.13
37368;BME280;23240;43.210;27.910;2023-06-22T09:58:59;101345.94;;;29.61;99.31
37368;BME280;23240;43.210;27.910;2023-06-22T10:01:24;101348.72;;;29.43;100.00
37368;BME280;23240;43.210;27.910;2023-06-22T10:03:50;101348.72;;;29.43;100.00
37368;BME280;23240;43.210;27.910;2023-06-22T10:06:15;101350.13;;;29.34;100.00
37368;BME280;23240;43.210;27.910;2023-06-22T10:08:40;101359.78;;;29.13;97.93
37368;BME280;23240;43.210;27.910;2023-06-22T10:11:06;101357.06;;;28.94;100.00
37368;BME280;23240;43.210;27.910;2023-06-22T10:13:31;101344.25;;;28.82;100.00
37368;BME280;23240;43.210;27.910;2023-06-22T10:15:57;101348.47;;;28.84;100.00
37368;BME280;23240;43.210;27.910;2023-06-22T10:18:22;101348.34;;;28.91;100.00
37368;BME280;23240;43.210;27.910;2023-06-22T10:20:48;101352.16;;;28.78;100.00
37368;BME280;23240;43.210;27.910;2023-06-22T10:23:15;101341.72;;;28.62;97.23
37368;BME280;23240;43.210;27.910;2023-06-22T10:25:40;101348.16;;;28.12;95.89
37368;BME280;23240;43.210;27.910;2023-06-22T10:28:06;101354.81;;;28.05;100.00
37368;BME280;23240;43.210;27.910;2023-06-22T10:30:32;101353.63;;;28.19;97.66
37368;BME280;23240;43.210;27.910;2023-06-22T10:32:57;101357.94;;;28.08;100.00
37368;BME280;23240;43.210;27.910;2023-06-22T10:35:23;101354.47;;;27.95;100.00
37368;BME280;23240;43.210;27.910;2023-06-22T10:37:48;101354.81;;;27.80;100.00
37368;BME280;23240;43.210;27.910;2023-06-22T10:40:14;101360.84;;;27.95;100.00
37368;BME280;23240;43.210;27.910;2023-06-22T10:42:40;101348.63;;;28.09;100.00
37368;BME280;23240;43.210;27.910;2023-06-22T10:45:06;101347.88;;;28.21;100.00
37368;BME280;23240;43.210;27.910;2023-06-22T10:47:32;101345.56;;;28.17;100.00
37368;BME280;23240;43.210;27.910;2023-06-22T10:49:57;101340.84;;;28.25;100.00
37368;BME280;23240;43.210;27.910;2023-06-22T10:52:22;101337.38;;;28.36;100.00
37368;BME280;23240;43.210;27.910;2023-06-22T10:54:47;101333.69;;;28.42;100.00
37368;BME280;23240;43.210;27.910;2023-06-22T10:57:13;101332.56;;;28.50;100.00
37368;BME280;23240;43.210;27.910;2023-06-22T10:59:38;101338.75;;;28.45;100.00
37368;BME280;23240;43.210;27.910;2023-06-22T11:02:04;101339.53;;;28.34;100.00
37368;BME280;23240;43.210;27.910;2023-06-22T11:04:29;101326.13;;;28.12;100.00
37368;BME280;23240;43.210;27.910;2023-06-22T11:06:55;101331.81;;;28.17;100.00
37368;BME280;23240;43.210;27.910;2023-06-22T11:09:21;101333.19;;;28.27;100.00
37368;BME280;23240;43.210;27.910;2023-06-22T11:11:47;101334.44;;;28.31;100.00
37368;BME280;23240;43.210;27.910;2023-06-22T11:14:12;101333.47;;;28.18;100.00
37368;BME280;23240;43.210;27.910;2023-06-22T11:16:37;101331.75;;;27.99;100.00
37368;BME280;23240;43.210;27.910;2023-06-22T11:19:04;101341.72;;;27.75;100.00
37368;BME280;23240;43.210;27.910;2023-06-22T11:21:29;101343.16;;;27.46;100.00
37368;BME280;23240;43.210;27.910;2023-06-22T11:23:54;101346.81;;;27.40;100.00
37368;BME280;23240;43.210;27.910;2023-06-22T11:26:20;101337.63;;;27.53;100.00
37368;BME280;23240;43.210;27.910;2023-06-22T11:28:46;101329.78;;;27.25;100.00
37368;BME280;23240;43.210;27.910;2023-06-22T11:31:11;101335.84;;;26.95;100.00
37368;BME280;23240;43.210;27.910;2023-06-22T11:33:37;101332.91;;;26.90;100.00
37368;BME280;23240;43.210;27.910;2023-06-22T11:36:02;101337.75;;;26.95;100.00
37368;BME280;23240;43.210;27.910;2023-06-22T11:38:27;101332.44;;;27.00;100.00
37368;BME280;23240;43.210;27.910;2023-06-22T11:40:53;101333.47;;;27.05;100.00
37368;BME280;23240;43.210;27.910;2023-06-22T11:43:18;101338.34;;;27.03;100.00
37368;BME280;23240;43.210;27.910;2023-06-22T11:45:43;101337.25;;;27.11;100.00
37368;BME280;23240;43.210;27.910;2023-06-22T11:48:08;101336.19;;;27.19;100.00
37368;BME280;23240;43.210;27.910;2023-06-22T11:50:34;101337.09;;;26.92;100.00
37368;BME280;23240;43.210;27.910;2023-06-22T11:53:01;101331.50;;;26.74;100.00
37368;BME280;23240;43.210;27.910;2023-06-22T11:55:27;101334.63;;;26.78;100.00
37368;BME280;23240;43.210;27.910;2023-06-22T11:57:54;101339.75;;;26.74;100.00
37368;BME280;23240;43.210;27.910;2023-06-22T12:00:19;101330.06;;;26.58;100.00
37368;BME280;23240;43.210;27.910;2023-06-22T12:02:45;101334.75;;;26.51;100.00
37368;BME280;23240;43.210;27.910;2023-06-22T12:05:11;101323.34;;;26.48;100.00
37368;BME280;23240;43.210;27.910;2023-06-22T12:07:37;101326.50;;;26.38;100.00
37368;BME280;23240;43.210;27.910;2023-06-22T12:10:03;101331.81;;;26.33;100.00
37368;BME280;23240;43.210;27.910;2023-06-22T12:12:31;101334.16;;;26.23;100.00
37368;BME280;23240;43.210;27.910;2023-06-22T12:14:56;101340.31;;;26.11;100.00
37368;BME280;23240;43.210;27.910;2023-06-22T12:17:22;101332.69;;;26.00;100.00
37368;BME280;23240;43.210;27.910;2023-06-22T12:19:47;101338.44;;;25.92;100.00
37368;BME280;23240;43.210;27.910;2023-06-22T12:22:12;101327.44;;;25.92;100.00
37368;BME280;23240;43.210;27.910;2023-06-22T12:24:38;101334.41;;;25.88;100.00
37368;BME280;23240;43.210;27.910;2023-06-22T12:27:03;101329.97;;;25.94;100.00
37368;BME280;23240;43.210;27.910;2023-06-22T12:29:28;101325.13;;;25.82;100.00
37368;BME280;23240;43.210;27.910;2023-06-22T12:31:54;101325.31;;;25.81;100.00